RJSN(METAR)
05/21 17:00
METAR RJSN 210800Z 26010KT 9999 FEW025 SCT080 BKN/// 19/11 Q1004 RMK
2CU025 3AC080 A2966=
戻る
トップページへ戻る
IMOC Co,.Ltd.